createdAt,value
2019-05-23T00:00:55.000Z,75.02
2019-05-23T00:01:55.000Z,75.44
2019-05-23T00:02:55.000Z,75.36
2019-05-23T00:03:55.000Z,75.67
2019-05-23T00:04:55.000Z,75.99
2019-05-23T00:06:09.000Z,76.28
2019-05-23T00:06:55.000Z,76.33
2019-05-23T00:07:55.000Z,76.39
2019-05-23T00:08:55.000Z,76.13
2019-05-23T00:09:55.000Z,75.95
2019-05-23T00:10:55.000Z,76.17
2019-05-23T00:11:55.000Z,76.26
2019-05-23T00:12:55.000Z,76.58
2019-05-23T00:13:55.000Z,76.17
2019-05-23T00:14:55.000Z,76.26
2019-05-23T00:15:55.000Z,76.01
2019-05-23T00:16:55.000Z,76.22
2019-05-23T00:17:55.000Z,75.97
2019-05-23T00:18:55.000Z,75.95
2019-05-23T00:19:55.000Z,75.94
2019-05-23T00:20:55.000Z,76.44
2019-05-23T00:21:55.000Z,76.28
2019-05-23T00:22:55.000Z,76.15
2019-05-23T00:23:55.000Z,75.78
2019-05-23T00:24:55.000Z,76.21
2019-05-23T00:25:55.000Z,76.44
2019-05-23T00:26:55.000Z,76.07
2019-05-23T00:27:55.000Z,76.14
2019-05-23T00:28:55.000Z,75.99
2019-05-23T00:29:55.000Z,75.92
2019-05-23T00:30:55.000Z,76.31
2019-05-23T00:31:55.000Z,76.15
2019-05-23T00:32:55.000Z,75.96
2019-05-23T00:33:55.000Z,75.96
2019-05-23T00:34:55.000Z,76.18
2019-05-23T00:35:55.000Z,76.68
2019-05-23T00:36:55.000Z,76.31
2019-05-23T00:37:55.000Z,76.50
2019-05-23T00:38:55.000Z,76.04
2019-05-23T00:39:55.000Z,76.14
2019-05-23T00:40:55.000Z,76.56
2019-05-23T00:41:55.000Z,76.31
2019-05-23T00:42:55.000Z,76.54
2019-05-23T00:43:55.000Z,76.33
2019-05-23T00:44:55.000Z,76.07
2019-05-23T00:45:55.000Z,76.25
2019-05-23T00:46:55.000Z,76.35
2019-05-23T00:47:55.000Z,76.35
2019-05-23T00:48:55.000Z,76.47
2019-05-23T00:49:55.000Z,76.37
2019-05-23T00:50:55.000Z,76.17
2019-05-23T00:51:55.000Z,76.29
2019-05-23T00:52:55.000Z,76.29
2019-05-23T00:53:55.000Z,76.00
2019-05-23T00:54:55.000Z,76.24
2019-05-23T00:55:55.000Z,76.01
2019-05-23T00:56:55.000Z,76.08
2019-05-23T00:57:54.000Z,76.78
2019-05-23T00:58:54.000Z,76.25
2019-05-23T00:59:54.000Z,76.55
2019-05-23T01:00:54.000Z,76.44
2019-05-23T01:01:54.000Z,76.67
2019-05-23T01:02:55.000Z,77.04
2019-05-23T01:03:54.000Z,76.32
2019-05-23T01:04:54.000Z,76.31
2019-05-23T01:05:54.000Z,76.44
2019-05-23T01:06:54.000Z,76.72
2019-05-23T01:07:55.000Z,76.87
2019-05-23T01:08:55.000Z,76.76
2019-05-23T01:09:55.000Z,76.73
2019-05-23T01:10:54.000Z,76.61
2019-05-23T01:11:55.000Z,76.67
2019-05-23T01:12:54.000Z,77.53
2019-05-23T01:13:54.000Z,77.16
2019-05-23T01:14:55.000Z,77.17
2019-05-23T01:15:54.000Z,77.24
2019-05-23T01:16:54.000Z,77.37
2019-05-23T01:17:54.000Z,77.92
2019-05-23T01:18:54.000Z,78.03
2019-05-23T01:19:54.000Z,77.91
2019-05-23T01:20:54.000Z,78.25
2019-05-23T01:21:54.000Z,77.73
2019-05-23T01:22:54.000Z,77.55
2019-05-23T01:23:54.000Z,77.87
2019-05-23T01:24:54.000Z,78.10
2019-05-23T01:25:54.000Z,77.83
2019-05-23T01:26:54.000Z,78.09
2019-05-23T01:27:54.000Z,77.84
2019-05-23T01:28:55.000Z,77.65
2019-05-23T01:29:55.000Z,77.91
2019-05-23T01:30:55.000Z,77.82
2019-05-23T01:31:55.000Z,77.64
2019-05-23T01:32:55.000Z,77.60
2019-05-23T01:33:55.000Z,77.39
2019-05-23T01:34:55.000Z,77.21
2019-05-23T01:35:55.000Z,77.09
2019-05-23T01:36:55.000Z,77.22
2019-05-23T01:37:55.000Z,77.52
2019-05-23T01:38:55.000Z,77.29
2019-05-23T01:39:55.000Z,77.58
2019-05-23T01:40:55.000Z,77.59
2019-05-23T01:41:55.000Z,77.66
2019-05-23T01:42:55.000Z,77.37
2019-05-23T01:43:55.000Z,77.91
2019-05-23T01:44:55.000Z,77.42
2019-05-23T01:45:55.000Z,77.48
2019-05-23T01:46:55.000Z,77.31
2019-05-23T01:47:55.000Z,77.77
2019-05-23T01:48:55.000Z,77.62
2019-05-23T01:49:55.000Z,77.74
2019-05-23T01:50:55.000Z,77.66
2019-05-23T01:51:55.000Z,77.61
2019-05-23T01:52:55.000Z,77.43
2019-05-23T01:53:55.000Z,77.18
2019-05-23T01:54:55.000Z,77.25
2019-05-23T01:55:55.000Z,77.06
2019-05-23T01:56:55.000Z,77.03
2019-05-23T01:57:55.000Z,77.04
2019-05-23T01:58:55.000Z,77.13
2019-05-23T01:59:55.000Z,77.22
2019-05-23T02:00:55.000Z,77.21
2019-05-23T02:01:55.000Z,77.24
2019-05-23T02:02:55.000Z,77.31
2019-05-23T02:03:55.000Z,77.13
2019-05-23T02:04:55.000Z,77.10
2019-05-23T02:05:55.000Z,77.11
2019-05-23T02:06:55.000Z,77.31
2019-05-23T02:07:55.000Z,77.71
2019-05-23T02:08:55.000Z,77.44
2019-05-23T02:09:55.000Z,77.40
2019-05-23T02:10:55.000Z,77.60
2019-05-23T02:11:55.000Z,77.63
2019-05-23T02:12:55.000Z,77.47
2019-05-23T02:13:55.000Z,77.42
2019-05-23T02:14:55.000Z,77.57
2019-05-23T02:15:55.000Z,77.66
2019-05-23T02:16:55.000Z,78.05
2019-05-23T02:17:55.000Z,77.78
2019-05-23T02:18:55.000Z,77.25
2019-05-23T02:19:55.000Z,77.48
2019-05-23T02:20:55.000Z,77.41
2019-05-23T02:21:55.000Z,77.52
2019-05-23T02:22:55.000Z,77.94
2019-05-23T02:23:55.000Z,77.44
2019-05-23T02:24:55.000Z,77.78
2019-05-23T02:25:55.000Z,77.95
2019-05-23T02:26:55.000Z,78.10
2019-05-23T02:27:55.000Z,77.88
2019-05-23T02:28:55.000Z,78.07
2019-05-23T02:29:55.000Z,78.18
2019-05-23T02:30:55.000Z,78.00
2019-05-23T02:31:55.000Z,77.96
2019-05-23T02:32:55.000Z,77.86
2019-05-23T02:33:55.000Z,78.18
2019-05-23T02:34:55.000Z,77.92
2019-05-23T02:35:55.000Z,78.05
2019-05-23T02:36:55.000Z,78.04
2019-05-23T02:37:55.000Z,78.01
2019-05-23T02:38:55.000Z,78.10
2019-05-23T02:39:55.000Z,78.03
2019-05-23T02:40:55.000Z,78.14
2019-05-23T02:41:55.000Z,78.18
2019-05-23T02:42:55.000Z,78.14
2019-05-23T02:43:55.000Z,78.43
2019-05-23T02:44:55.000Z,78.79
2019-05-23T02:45:55.000Z,78.85
2019-05-23T02:46:55.000Z,78.69
2019-05-23T02:48:37.000Z,78.48
2019-05-23T02:48:55.000Z,78.54
2019-05-23T02:49:55.000Z,78.87
2019-05-23T02:50:55.000Z,78.75
2019-05-23T02:51:55.000Z,78.30
2019-05-23T02:52:55.000Z,78.19
2019-05-23T02:53:55.000Z,78.17
2019-05-23T02:54:55.000Z,78.25
2019-05-23T02:55:55.000Z,78.29
2019-05-23T02:56:55.000Z,78.28
2019-05-23T02:57:55.000Z,78.87
2019-05-23T02:58:55.000Z,78.56
2019-05-23T02:59:57.000Z,78.63
2019-05-23T03:00:55.000Z,78.57
2019-05-23T03:01:55.000Z,78.38
2019-05-23T03:03:14.000Z,78.50
2019-05-23T03:03:55.000Z,78.46
2019-05-23T03:04:55.000Z,78.63
2019-05-23T03:05:55.000Z,78.81
2019-05-23T03:06:55.000Z,79.15
2019-05-23T03:07:55.000Z,78.72
2019-05-23T03:08:55.000Z,79.24
2019-05-23T03:09:55.000Z,78.82
2019-05-23T03:10:55.000Z,79.33
2019-05-23T03:11:55.000Z,79.55
2019-05-23T03:12:55.000Z,79.09
2019-05-23T03:13:55.000Z,79.02
2019-05-23T03:14:55.000Z,78.95
2019-05-23T03:15:55.000Z,79.18
2019-05-23T03:16:55.000Z,78.90
2019-05-23T03:17:55.000Z,78.82
2019-05-23T03:18:55.000Z,78.74
2019-05-23T03:19:55.000Z,78.91
2019-05-23T03:20:55.000Z,78.56
2019-05-23T03:21:55.000Z,78.76
2019-05-23T03:22:55.000Z,78.82
2019-05-23T03:23:55.000Z,78.69
2019-05-23T03:24:55.000Z,78.60
2019-05-23T03:25:55.000Z,78.80
2019-05-23T03:27:02.000Z,78.69
2019-05-23T03:27:55.000Z,78.84
2019-05-23T03:28:55.000Z,78.57
2019-05-23T03:29:55.000Z,78.42
2019-05-23T03:30:55.000Z,78.41
2019-05-23T03:31:55.000Z,78.34
2019-05-23T03:32:55.000Z,78.60
2019-05-23T03:33:55.000Z,78.54
2019-05-23T03:34:55.000Z,78.63
2019-05-23T03:35:55.000Z,78.84
2019-05-23T03:36:55.000Z,78.67
2019-05-23T03:37:55.000Z,78.75
2019-05-23T03:38:55.000Z,78.70
2019-05-23T03:39:55.000Z,78.76
2019-05-23T03:40:55.000Z,78.64
2019-05-23T03:41:55.000Z,78.85
2019-05-23T03:42:55.000Z,78.84
2019-05-23T03:43:55.000Z,78.93
2019-05-23T03:44:55.000Z,79.12
2019-05-23T03:45:55.000Z,79.14
2019-05-23T03:46:55.000Z,79.22
2019-05-23T03:47:55.000Z,79.37
2019-05-23T03:48:55.000Z,79.39
2019-05-23T03:49:55.000Z,79.39
2019-05-23T03:50:55.000Z,79.38
2019-05-23T03:51:55.000Z,79.30
2019-05-23T03:52:55.000Z,79.29
2019-05-23T03:53:55.000Z,79.35
2019-05-23T03:54:55.000Z,79.51
2019-05-23T03:55:55.000Z,79.43
2019-05-23T03:56:55.000Z,79.46
2019-05-23T03:57:55.000Z,79.78
2019-05-23T03:58:55.000Z,79.76
2019-05-23T03:59:56.000Z,79.84
2019-05-23T04:00:55.000Z,79.88
2019-05-23T04:01:55.000Z,79.87
2019-05-23T04:02:55.000Z,79.67
2019-05-23T04:03:55.000Z,79.71
2019-05-23T04:04:55.000Z,80.03
2019-05-23T04:05:55.000Z,80.05
2019-05-23T04:06:55.000Z,80.01
2019-05-23T04:07:55.000Z,79.90
2019-05-23T04:08:55.000Z,79.88
2019-05-23T04:09:55.000Z,79.98
2019-05-23T04:10:55.000Z,79.73
2019-05-23T04:11:55.000Z,79.66
2019-05-23T04:12:55.000Z,79.80
2019-05-23T04:13:55.000Z,80.21
2019-05-23T04:14:55.000Z,79.92
2019-05-23T04:15:55.000Z,79.85
2019-05-23T04:16:55.000Z,79.69
2019-05-23T04:17:55.000Z,79.96
2019-05-23T04:18:55.000Z,79.95
2019-05-23T04:19:55.000Z,79.76
2019-05-23T04:20:55.000Z,79.81
2019-05-23T04:21:55.000Z,79.99
2019-05-23T04:22:55.000Z,80.01
2019-05-23T04:23:55.000Z,79.56
2019-05-23T04:24:55.000Z,79.89
2019-05-23T04:25:55.000Z,80.18
2019-05-23T04:26:55.000Z,80.26
2019-05-23T04:27:55.000Z,80.14
2019-05-23T04:28:55.000Z,80.21
2019-05-23T04:29:55.000Z,80.30
2019-05-23T04:30:55.000Z,80.35
2019-05-23T04:31:55.000Z,80.31
2019-05-23T04:32:55.000Z,80.18
2019-05-23T04:33:55.000Z,80.37
2019-05-23T04:34:55.000Z,80.58
2019-05-23T04:35:55.000Z,80.58
2019-05-23T04:36:55.000Z,80.32
2019-05-23T04:37:55.000Z,80.45
2019-05-23T04:38:55.000Z,80.20
2019-05-23T04:39:55.000Z,80.40
2019-05-23T04:40:55.000Z,80.71
2019-05-23T04:41:55.000Z,80.59
2019-05-23T04:42:55.000Z,80.80
2019-05-23T04:43:55.000Z,80.62
2019-05-23T04:44:55.000Z,80.50
2019-05-23T04:45:55.000Z,80.45
2019-05-23T04:46:55.000Z,80.98
2019-05-23T04:47:55.000Z,80.51
2019-05-23T04:48:55.000Z,80.62
2019-05-23T04:49:55.000Z,80.33
2019-05-23T04:50:55.000Z,80.51
2019-05-23T04:51:55.000Z,80.81
2019-05-23T04:52:55.000Z,80.72
2019-05-23T04:53:55.000Z,80.72
2019-05-23T04:54:55.000Z,80.39
2019-05-23T04:55:55.000Z,80.76
2019-05-23T04:56:55.000Z,81.22
2019-05-23T04:57:55.000Z,80.85
2019-05-23T04:58:55.000Z,80.69
2019-05-23T04:59:55.000Z,80.52
2019-05-23T05:00:55.000Z,80.46
2019-05-23T05:01:55.000Z,80.68
2019-05-23T05:02:55.000Z,80.58
2019-05-23T05:03:55.000Z,80.39
2019-05-23T05:04:55.000Z,80.95
2019-05-23T05:05:55.000Z,80.56
2019-05-23T05:06:55.000Z,81.06
2019-05-23T05:07:55.000Z,80.56
2019-05-23T05:08:55.000Z,80.72
2019-05-23T05:09:55.000Z,80.56
2019-05-23T05:10:55.000Z,81.66
2019-05-23T05:11:55.000Z,81.26
2019-05-23T05:12:55.000Z,81.24
2019-05-23T05:13:55.000Z,80.60
2019-05-23T05:14:55.000Z,80.58
2019-05-23T05:15:55.000Z,81.02
2019-05-23T05:16:55.000Z,80.64
2019-05-23T05:17:55.000Z,80.57
2019-05-23T05:18:55.000Z,80.38
2019-05-23T05:19:55.000Z,80.09
2019-05-23T05:20:55.000Z,80.17
2019-05-23T05:21:55.000Z,80.41
2019-05-23T05:22:55.000Z,79.96
2019-05-23T05:23:55.000Z,80.05
2019-05-23T05:24:55.000Z,80.01
2019-05-23T05:25:55.000Z,79.76
2019-05-23T05:26:55.000Z,80.02
2019-05-23T05:27:55.000Z,79.93
2019-05-23T05:28:55.000Z,79.77
2019-05-23T05:29:55.000Z,79.98
2019-05-23T05:30:55.000Z,80.13
2019-05-23T05:31:55.000Z,79.83
2019-05-23T05:32:55.000Z,79.89
2019-05-23T05:33:55.000Z,79.72
2019-05-23T05:34:55.000Z,79.63
2019-05-23T05:35:55.000Z,79.76
2019-05-23T05:36:55.000Z,79.56
2019-05-23T05:37:55.000Z,80.06
2019-05-23T05:38:55.000Z,79.58
2019-05-23T05:39:55.000Z,79.53
2019-05-23T05:40:55.000Z,79.62
2019-05-23T05:41:55.000Z,79.60
2019-05-23T05:42:55.000Z,79.44
2019-05-23T05:43:55.000Z,79.37
2019-05-23T05:44:55.000Z,79.32
2019-05-23T05:45:55.000Z,79.44
2019-05-23T05:46:55.000Z,79.68
2019-05-23T05:47:55.000Z,79.50
2019-05-23T05:48:55.000Z,79.24
2019-05-23T05:49:55.000Z,79.36
2019-05-23T05:50:55.000Z,79.55
2019-05-23T05:51:55.000Z,79.51
2019-05-23T05:52:55.000Z,79.34
2019-05-23T05:53:55.000Z,79.68
2019-05-23T05:54:55.000Z,79.37
2019-05-23T05:55:55.000Z,79.43
2019-05-23T05:56:55.000Z,79.15
2019-05-23T05:57:55.000Z,79.10
2019-05-23T05:58:55.000Z,79.44
2019-05-23T05:59:55.000Z,79.22
2019-05-23T06:00:55.000Z,78.99
2019-05-23T06:01:54.000Z,78.91
2019-05-23T06:02:54.000Z,78.85
2019-05-23T06:03:54.000Z,78.62
2019-05-23T06:04:54.000Z,78.62
2019-05-23T06:05:54.000Z,78.42
2019-05-23T06:06:54.000Z,78.44
2019-05-23T06:07:54.000Z,78.50
2019-05-23T06:08:54.000Z,78.53
2019-05-23T06:09:55.000Z,78.28
2019-05-23T06:10:54.000Z,78.20
2019-05-23T06:11:54.000Z,78.08
2019-05-23T06:12:54.000Z,77.92
2019-05-23T06:13:54.000Z,77.72
2019-05-23T06:14:54.000Z,77.70
2019-05-23T06:15:54.000Z,77.70
2019-05-23T06:16:54.000Z,77.74
2019-05-23T06:17:54.000Z,77.87
2019-05-23T06:18:54.000Z,77.78
2019-05-23T06:19:54.000Z,77.37
2019-05-23T06:20:54.000Z,77.34
2019-05-23T06:21:54.000Z,77.42
2019-05-23T06:22:54.000Z,77.50
2019-05-23T06:23:54.000Z,77.93
2019-05-23T06:24:54.000Z,78.11
2019-05-23T06:25:54.000Z,78.21
2019-05-23T06:26:54.000Z,78.10
2019-05-23T06:27:54.000Z,78.18
2019-05-23T06:28:54.000Z,77.98
2019-05-23T06:29:54.000Z,78.11
2019-05-23T06:30:54.000Z,77.98
2019-05-23T06:31:54.000Z,77.98
2019-05-23T06:32:54.000Z,78.37
2019-05-23T06:33:54.000Z,77.99
2019-05-23T06:34:54.000Z,77.77
2019-05-23T06:35:54.000Z,77.57
2019-05-23T06:36:54.000Z,77.30
2019-05-23T06:37:54.000Z,77.53
2019-05-23T06:38:54.000Z,77.63
2019-05-23T06:39:54.000Z,77.76
2019-05-23T06:40:54.000Z,77.42
2019-05-23T06:41:54.000Z,77.21
2019-05-23T06:42:54.000Z,77.44
2019-05-23T06:43:54.000Z,77.37
2019-05-23T06:44:54.000Z,77.18
2019-05-23T06:45:54.000Z,77.32
2019-05-23T06:46:54.000Z,77.29
2019-05-23T06:47:54.000Z,77.33
2019-05-23T06:48:54.000Z,77.07
2019-05-23T06:49:54.000Z,76.85
2019-05-23T06:50:54.000Z,76.80
2019-05-23T06:51:54.000Z,76.81
2019-05-23T06:52:54.000Z,76.59
2019-05-23T06:53:54.000Z,76.81
2019-05-23T06:54:54.000Z,77.08
2019-05-23T06:55:54.000Z,77.32
2019-05-23T06:56:54.000Z,76.88
2019-05-23T06:57:54.000Z,77.00
2019-05-23T06:58:54.000Z,76.52
2019-05-23T06:59:54.000Z,76.40
2019-05-23T07:00:54.000Z,76.51
2019-05-23T07:01:54.000Z,76.78
2019-05-23T07:02:54.000Z,77.12
2019-05-23T07:03:55.000Z,76.85
2019-05-23T07:04:55.000Z,77.05
2019-05-23T07:05:55.000Z,77.06
2019-05-23T07:06:55.000Z,76.74
2019-05-23T07:07:55.000Z,76.36
2019-05-23T07:08:55.000Z,76.47
2019-05-23T07:09:55.000Z,76.53
2019-05-23T07:10:55.000Z,76.43
2019-05-23T07:11:55.000Z,76.52
2019-05-23T07:12:55.000Z,76.64
2019-05-23T07:13:55.000Z,76.75
2019-05-23T07:14:55.000Z,76.23
2019-05-23T07:15:55.000Z,76.64
2019-05-23T07:16:55.000Z,76.87
2019-05-23T07:17:55.000Z,76.67
2019-05-23T07:18:55.000Z,76.06
2019-05-23T07:19:55.000Z,75.95
2019-05-23T07:20:55.000Z,75.65
2019-05-23T07:21:55.000Z,75.23
2019-05-23T07:22:55.000Z,74.59
2019-05-23T07:23:55.000Z,74.96
2019-05-23T07:24:55.000Z,75.06
2019-05-23T07:25:55.000Z,73.27
2019-05-23T07:26:55.000Z,74.25
2019-05-23T07:27:55.000Z,73.95
2019-05-23T07:28:55.000Z,74.49
2019-05-23T07:29:55.000Z,74.42
2019-05-23T07:30:55.000Z,74.03
2019-05-23T07:31:55.000Z,73.29
2019-05-23T07:32:55.000Z,73.18
2019-05-23T07:33:55.000Z,73.36
2019-05-23T07:34:55.000Z,72.73
2019-05-23T07:35:55.000Z,72.77
2019-05-23T07:36:55.000Z,73.23
2019-05-23T07:37:55.000Z,73.73
2019-05-23T07:38:55.000Z,74.88
2019-05-23T07:39:55.000Z,74.81
2019-05-23T07:40:55.000Z,73.81
2019-05-23T07:41:55.000Z,74.00
2019-05-23T07:42:55.000Z,74.22
2019-05-23T07:43:55.000Z,74.99
2019-05-23T07:44:55.000Z,74.75
2019-05-23T07:45:55.000Z,74.20
2019-05-23T07:46:55.000Z,74.35
2019-05-23T07:47:55.000Z,74.44
2019-05-23T07:48:55.000Z,74.34
2019-05-23T07:49:55.000Z,74.12
2019-05-23T07:50:55.000Z,72.97
2019-05-23T07:51:55.000Z,73.51
2019-05-23T07:52:55.000Z,73.41
2019-05-23T07:53:55.000Z,73.30
2019-05-23T07:55:04.000Z,73.14
2019-05-23T07:55:55.000Z,72.77
2019-05-23T07:56:55.000Z,72.25
2019-05-23T07:57:55.000Z,72.22
2019-05-23T07:58:55.000Z,72.28
2019-05-23T07:59:55.000Z,71.57
2019-05-23T08:00:55.000Z,70.71
2019-05-23T08:01:55.000Z,70.94
2019-05-23T08:02:55.000Z,70.78
2019-05-23T08:03:55.000Z,70.47
2019-05-23T08:04:55.000Z,68.71
2019-05-23T08:05:55.000Z,70.27
2019-05-23T08:06:55.000Z,70.06
2019-05-23T08:07:55.000Z,69.94
2019-05-23T08:08:55.000Z,68.56
2019-05-23T08:09:55.000Z,69.25
2019-05-23T08:10:55.000Z,69.15
2019-05-23T08:11:55.000Z,69.26
2019-05-23T08:12:55.000Z,68.29
2019-05-23T08:13:55.000Z,68.07
2019-05-23T08:14:55.000Z,69.25
2019-05-23T08:15:55.000Z,69.32
2019-05-23T08:16:55.000Z,69.70
2019-05-23T08:17:55.000Z,69.27
2019-05-23T08:18:55.000Z,67.65
2019-05-23T08:19:55.000Z,66.79
2019-05-23T08:20:55.000Z,67.95
2019-05-23T08:21:55.000Z,68.52
2019-05-23T08:22:55.000Z,67.79
2019-05-23T08:23:55.000Z,67.71
2019-05-23T08:24:55.000Z,66.75
2019-05-23T08:25:55.000Z,67.74
2019-05-23T08:26:55.000Z,65.93
2019-05-23T08:27:55.000Z,64.34
2019-05-23T08:28:55.000Z,64.36
2019-05-23T08:29:55.000Z,64.68
2019-05-23T08:30:55.000Z,66.79
2019-05-23T08:31:55.000Z,66.79
2019-05-23T08:32:55.000Z,66.84
2019-05-23T08:33:55.000Z,66.72
2019-05-23T08:34:54.000Z,67.61
2019-05-23T08:35:54.000Z,67.77
2019-05-23T08:36:54.000Z,68.14
2019-05-23T08:37:54.000Z,66.31
2019-05-23T08:38:54.000Z,64.27
2019-05-23T08:39:54.000Z,65.12
2019-05-23T08:40:54.000Z,66.74
2019-05-23T08:41:54.000Z,64.64
2019-05-23T08:42:54.000Z,64.70
2019-05-23T08:43:54.000Z,66.72
2019-05-23T08:44:54.000Z,66.37
2019-05-23T08:45:54.000Z,66.14
2019-05-23T08:46:54.000Z,63.76
2019-05-23T08:47:54.000Z,64.51
2019-05-23T08:48:54.000Z,61.78
2019-05-23T08:49:54.000Z,63.42
2019-05-23T08:50:54.000Z,62.22
2019-05-23T08:51:54.000Z,62.33
2019-05-23T08:52:54.000Z,60.68
2019-05-23T08:53:54.000Z,62.72
2019-05-23T08:54:54.000Z,63.73
2019-05-23T08:55:54.000Z,64.18
2019-05-23T08:56:54.000Z,61.61
2019-05-23T08:57:54.000Z,58.56
2019-05-23T08:58:54.000Z,57.35
2019-05-23T08:59:54.000Z,58.98
2019-05-23T09:00:54.000Z,61.03
2019-05-23T09:01:54.000Z,59.84
2019-05-23T09:02:54.000Z,61.05
2019-05-23T09:03:54.000Z,60.73
2019-05-23T09:04:54.000Z,61.82
2019-05-23T09:05:54.000Z,60.69
2019-05-23T09:06:54.000Z,59.51
2019-05-23T09:07:54.000Z,61.08
2019-05-23T09:08:54.000Z,60.14
2019-05-23T09:09:54.000Z,60.62
2019-05-23T09:10:54.000Z,60.15
2019-05-23T09:11:54.000Z,59.06
2019-05-23T09:12:54.000Z,61.25
2019-05-23T09:13:54.000Z,60.47
2019-05-23T09:14:54.000Z,60.73
2019-05-23T09:15:54.000Z,60.00
2019-05-23T09:16:54.000Z,61.58
2019-05-23T09:17:54.000Z,60.28
2019-05-23T09:18:54.000Z,60.63
2019-05-23T09:19:54.000Z,60.48
2019-05-23T09:20:54.000Z,60.97
2019-05-23T09:21:54.000Z,60.42
2019-05-23T09:22:54.000Z,59.87
2019-05-23T09:23:54.000Z,59.49
2019-05-23T09:24:54.000Z,59.24
2019-05-23T09:25:54.000Z,59.60
2019-05-23T09:26:54.000Z,60.47
2019-05-23T09:27:54.000Z,59.77
2019-05-23T09:28:54.000Z,57.58
2019-05-23T09:29:54.000Z,56.12
2019-05-23T09:30:54.000Z,57.81
2019-05-23T09:31:54.000Z,57.58
2019-05-23T09:32:54.000Z,57.62
2019-05-23T09:33:58.000Z,58.73
2019-05-23T09:34:54.000Z,55.41
2019-05-23T09:35:54.000Z,56.42
2019-05-23T09:36:55.000Z,58.50
2019-05-23T09:37:54.000Z,56.89
2019-05-23T09:38:54.000Z,57.98
2019-05-23T09:39:54.000Z,58.99
2019-05-23T09:40:54.000Z,59.12
2019-05-23T09:41:54.000Z,57.14
2019-05-23T09:42:54.000Z,57.18
2019-05-23T09:43:54.000Z,56.74
2019-05-23T09:44:54.000Z,57.16
2019-05-23T09:45:54.000Z,56.26
2019-05-23T09:46:54.000Z,57.02
2019-05-23T09:47:54.000Z,56.53
2019-05-23T09:48:54.000Z,55.65
2019-05-23T09:49:54.000Z,54.72
2019-05-23T09:50:54.000Z,55.24
2019-05-23T09:51:54.000Z,55.32
2019-05-23T09:52:54.000Z,55.99
2019-05-23T09:53:54.000Z,56.43
2019-05-23T09:54:54.000Z,56.08
2019-05-23T09:55:54.000Z,55.91
2019-05-23T09:56:54.000Z,55.40
2019-05-23T09:57:54.000Z,55.48
2019-05-23T09:58:54.000Z,55.04
2019-05-23T09:59:54.000Z,52.46
2019-05-23T10:00:54.000Z,52.30
2019-05-23T10:01:54.000Z,53.62
2019-05-23T10:02:54.000Z,54.08
2019-05-23T10:03:54.000Z,54.35
2019-05-23T10:04:54.000Z,53.25
2019-05-23T10:05:54.000Z,52.70
2019-05-23T10:06:54.000Z,54.02
2019-05-23T10:07:54.000Z,50.87
2019-05-23T10:08:54.000Z,52.29
2019-05-23T10:09:54.000Z,52.18
2019-05-23T10:10:54.000Z,52.42
2019-05-23T10:11:54.000Z,51.59
2019-05-23T10:12:54.000Z,50.53
2019-05-23T10:13:54.000Z,50.77
2019-05-23T10:14:54.000Z,51.01
2019-05-23T10:15:54.000Z,52.65
2019-05-23T10:16:54.000Z,53.80
2019-05-23T10:17:54.000Z,50.36
2019-05-23T10:18:54.000Z,51.49
2019-05-23T10:19:54.000Z,50.80
2019-05-23T10:20:54.000Z,51.05
2019-05-23T10:21:54.000Z,50.04
2019-05-23T10:22:54.000Z,50.83
2019-05-23T10:23:54.000Z,50.58
2019-05-23T10:24:54.000Z,51.71
2019-05-23T10:25:54.000Z,53.64
2019-05-23T10:26:54.000Z,54.51
2019-05-23T10:27:54.000Z,52.92
2019-05-23T10:28:54.000Z,53.79
2019-05-23T10:29:54.000Z,53.74
2019-05-23T10:30:54.000Z,53.06
2019-05-23T10:31:54.000Z,51.13
2019-05-23T10:32:54.000Z,50.27
2019-05-23T10:33:54.000Z,52.73
2019-05-23T10:34:54.000Z,51.83
2019-05-23T10:35:55.000Z,52.74
2019-05-23T10:36:54.000Z,53.21
2019-05-23T10:37:55.000Z,52.57
2019-05-23T10:38:54.000Z,51.32
2019-05-23T10:39:55.000Z,49.20
2019-05-23T10:40:55.000Z,49.43
2019-05-23T10:41:55.000Z,50.11
2019-05-23T10:42:55.000Z,50.03
2019-05-23T10:43:54.000Z,49.90
2019-05-23T10:44:55.000Z,50.35
2019-05-23T10:45:54.000Z,51.81
2019-05-23T10:46:55.000Z,50.17
2019-05-23T10:47:54.000Z,49.06
2019-05-23T10:48:55.000Z,50.15
2019-05-23T10:49:55.000Z,51.58
2019-05-23T10:50:55.000Z,52.94
2019-05-23T10:51:55.000Z,51.98
2019-05-23T10:52:54.000Z,52.54
2019-05-23T10:53:54.000Z,52.56
2019-05-23T10:54:55.000Z,51.76
2019-05-23T10:55:54.000Z,52.02
2019-05-23T10:56:55.000Z,51.67
2019-05-23T10:57:55.000Z,51.52
2019-05-23T10:58:55.000Z,51.89
2019-05-23T10:59:55.000Z,49.90
2019-05-23T11:00:55.000Z,51.53
2019-05-23T11:01:54.000Z,49.22
2019-05-23T11:02:55.000Z,50.65
2019-05-23T11:03:55.000Z,49.10
2019-05-23T11:04:54.000Z,49.40
2019-05-23T11:05:54.000Z,50.01
2019-05-23T11:06:54.000Z,49.91
2019-05-23T11:07:54.000Z,47.76
2019-05-23T11:08:54.000Z,48.81
2019-05-23T11:09:54.000Z,49.70
2019-05-23T11:10:54.000Z,48.10
2019-05-23T11:11:54.000Z,49.23
2019-05-23T11:12:54.000Z,49.46
2019-05-23T11:13:54.000Z,49.40
2019-05-23T11:14:54.000Z,49.20
2019-05-23T11:15:54.000Z,50.59
2019-05-23T11:16:54.000Z,49.96
2019-05-23T11:17:54.000Z,49.68
2019-05-23T11:18:54.000Z,48.83
2019-05-23T11:19:54.000Z,48.97
2019-05-23T11:20:54.000Z,49.60
2019-05-23T11:21:54.000Z,49.09
2019-05-23T11:22:54.000Z,49.80
2019-05-23T11:23:54.000Z,47.35
2019-05-23T11:24:54.000Z,47.08
2019-05-23T11:25:54.000Z,45.32
2019-05-23T11:26:54.000Z,45.13
2019-05-23T11:27:54.000Z,46.27
2019-05-23T11:28:54.000Z,46.01
2019-05-23T11:29:54.000Z,45.15
2019-05-23T11:30:54.000Z,43.51
2019-05-23T11:31:54.000Z,44.20
2019-05-23T11:32:54.000Z,44.70
2019-05-23T11:33:54.000Z,45.11
2019-05-23T11:34:54.000Z,46.31
2019-05-23T11:35:54.000Z,46.26
2019-05-23T11:36:54.000Z,47.15
2019-05-23T11:37:54.000Z,47.55
2019-05-23T11:38:54.000Z,46.43
2019-05-23T11:39:54.000Z,47.36
2019-05-23T11:40:54.000Z,45.39
2019-05-23T11:41:54.000Z,46.46
2019-05-23T11:42:54.000Z,45.46
2019-05-23T11:43:54.000Z,44.95
2019-05-23T11:44:54.000Z,45.13
2019-05-23T11:45:54.000Z,45.35
2019-05-23T11:46:54.000Z,45.40
2019-05-23T11:47:54.000Z,46.03
2019-05-23T11:48:54.000Z,45.19
2019-05-23T11:49:54.000Z,44.31
2019-05-23T11:50:54.000Z,43.55
2019-05-23T11:51:54.000Z,44.90
2019-05-23T11:52:54.000Z,44.15
2019-05-23T11:53:54.000Z,44.84
2019-05-23T11:54:54.000Z,45.08
2019-05-23T11:55:54.000Z,45.22
2019-05-23T11:56:54.000Z,44.73
2019-05-23T11:57:54.000Z,46.47
2019-05-23T11:58:54.000Z,45.95
2019-05-23T11:59:54.000Z,42.05
2019-05-23T12:00:54.000Z,42.15
2019-05-23T12:01:54.000Z,45.94
2019-05-23T12:02:54.000Z,46.89
2019-05-23T12:03:54.000Z,44.86
2019-05-23T12:04:54.000Z,43.72
2019-05-23T12:05:54.000Z,45.07
2019-05-23T12:06:54.000Z,46.26
2019-05-23T12:07:54.000Z,45.05
2019-05-23T12:08:54.000Z,47.15
2019-05-23T12:09:54.000Z,48.26
2019-05-23T12:10:54.000Z,47.68
2019-05-23T12:11:54.000Z,47.13
2019-05-23T12:12:54.000Z,44.31
2019-05-23T12:13:54.000Z,45.79
2019-05-23T12:14:54.000Z,45.70
2019-05-23T12:15:54.000Z,46.05
2019-05-23T12:16:54.000Z,44.43
2019-05-23T12:17:54.000Z,45.79
2019-05-23T12:18:54.000Z,46.53
2019-05-23T12:19:54.000Z,45.15
2019-05-23T12:20:54.000Z,45.01
2019-05-23T12:21:54.000Z,45.28
2019-05-23T12:22:54.000Z,44.43
2019-05-23T12:23:54.000Z,44.10
2019-05-23T12:24:54.000Z,44.58
2019-05-23T12:25:54.000Z,44.81
2019-05-23T12:26:54.000Z,44.56
2019-05-23T12:27:54.000Z,44.67
2019-05-23T12:28:54.000Z,42.22
2019-05-23T12:29:54.000Z,42.81
2019-05-23T12:30:54.000Z,45.77
2019-05-23T12:31:54.000Z,43.26
2019-05-23T12:32:54.000Z,43.83
2019-05-23T12:33:54.000Z,44.65
2019-05-23T12:34:54.000Z,44.70
2019-05-23T12:35:54.000Z,44.91
2019-05-23T12:36:54.000Z,46.17
2019-05-23T12:37:54.000Z,43.75
2019-05-23T12:38:54.000Z,44.97
2019-05-23T12:39:54.000Z,44.77
2019-05-23T12:40:54.000Z,43.31
2019-05-23T12:41:54.000Z,42.31
2019-05-23T12:42:54.000Z,43.26
2019-05-23T12:43:54.000Z,45.28
2019-05-23T12:44:54.000Z,45.59
2019-05-23T12:45:54.000Z,45.35
2019-05-23T12:46:54.000Z,44.35
2019-05-23T12:47:54.000Z,45.68
2019-05-23T12:48:54.000Z,43.85
2019-05-23T12:49:54.000Z,43.10
2019-05-23T12:50:54.000Z,43.81
2019-05-23T12:51:54.000Z,42.95
2019-05-23T12:52:54.000Z,44.52